Time;durP1;ratioP1;P1;durP2;ratioP2;P2;SDS_P1;SDS_P2;PMS_P1;PMS_P2;Temp;Humidity;BMP_temperature;BMP_pressure;BME280_temperature;BME280_humidity;BME280_pressure;Samples;Min_cycle;Max_cycle;Signal;HPM_P1;HPM_P2
2023/03/23 00:00:59;;;;;;;1.20;1.10;;;10.90;72.50;;;;;;5050603;28;20132;-77
2023/03/23 00:03:26;;;;;;;1.83;1.00;;;10.90;72.80;;;;;;5051948;28;20030;-77
2023/03/23 00:05:51;;;;;;;1.27;1.10;;;10.90;73.00;;;;;;5048202;28;20018;-77
2023/03/23 00:08:23;;;;;;;0.82;0.80;;;10.80;73.10;;;;;;5050900;28;20262;-77
2023/03/23 00:10:52;;;;;;;1.95;1.30;;;10.80;73.40;;;;;;5040376;28;20030;-77
2023/03/23 00:13:20;;;;;;;1.42;1.20;;;10.80;73.60;;;;;;5033295;28;20085;-77
2023/03/23 00:15:48;;;;;;;1.67;1.10;;;10.80;73.90;;;;;;5036318;28;20305;-77
2023/03/23 00:18:22;;;;;;;1.20;1.00;;;10.70;74.10;;;;;;5046917;28;20026;-77
2023/03/23 00:20:52;;;;;;;0.70;0.70;;;10.70;74.20;;;;;;5051104;28;20069;-76
2023/03/23 00:23:20;;;;;;;1.63;0.90;;;10.70;74.40;;;;;;5030404;28;20061;-76
2023/03/23 00:25:52;;;;;;;1.77;0.90;;;10.70;74.60;;;;;;5044273;28;20033;-76
2023/03/23 00:28:24;;;;;;;2.53;1.05;;;10.70;74.80;;;;;;5038447;28;20048;-75
2023/03/23 00:30:57;;;;;;;1.88;0.82;;;10.70;75.50;;;;;;5037136;28;20014;-76
2023/03/23 00:33:26;;;;;;;2.20;1.00;;;10.70;75.00;;;;;;5034388;28;20391;-78
2023/03/23 00:35:52;;;;;;;0.98;0.93;;;10.80;75.20;;;;;;5015812;28;20040;-77
2023/03/23 00:38:19;;;;;;;0.60;0.60;;;10.70;75.20;;;;;;5039752;28;20010;-76
2023/03/23 00:40:46;;;;;;;1.48;0.90;;;10.70;75.40;;;;;;5036701;28;20026;-76
2023/03/23 00:43:16;;;;;;;0.75;0.75;;;10.70;75.60;;;;;;5015720;28;20021;-76
2023/03/23 00:45:52;;;;;;;0.70;0.65;;;10.70;75.80;;;;;;5029004;28;20014;-77
2023/03/23 00:48:23;;;;;;;0.55;0.43;;;10.70;76.00;;;;;;5046550;28;20053;-76
2023/03/23 00:50:51;;;;;;;0.65;0.65;;;10.70;76.00;;;;;;5041143;28;20029;-77
2023/03/23 00:53:17;;;;;;;0.80;0.60;;;10.70;76.10;;;;;;5050956;28;20025;-77
2023/03/23 00:55:44;;;;;;;0.52;0.52;;;10.70;76.00;;;;;;5042334;28;20100;-77
2023/03/23 00:58:11;;;;;;;2.08;0.60;;;10.70;76.20;;;;;;5039049;28;20017;-77
2023/03/23 01:00:37;;;;;;;0.70;0.60;;;10.70;76.20;;;;;;5044258;28;20026;-77
2023/03/23 01:03:04;;;;;;;1.27;0.82;;;10.70;76.30;;;;;;5030112;28;20026;-77
2023/03/23 01:05:33;;;;;;;1.48;0.70;;;10.70;76.30;;;;;;5046035;28;20029;-76
2023/03/23 01:07:59;;;;;;;0.88;0.88;;;10.70;76.30;;;;;;5041269;28;20045;-77
2023/03/23 01:10:28;;;;;;;1.90;0.60;;;10.70;76.50;;;;;;5046094;22;20054;-77
2023/03/23 01:12:56;;;;;;;1.00;0.90;;;10.70;76.60;;;;;;5048546;28;20010;-79
2023/03/23 01:15:22;;;;;;;0.90;0.80;;;10.70;76.60;;;;;;5055006;28;20025;-79
2023/03/23 01:17:47;;;;;;;0.70;0.70;;;10.70;76.60;;;;;;5031920;28;20096;-79
2023/03/23 01:20:14;;;;;;;1.10;0.95;;;10.70;76.60;;;;;;5031136;28;20053;-79
2023/03/23 01:22:41;;;;;;;0.77;0.68;;;10.70;76.70;;;;;;5032319;28;20033;-78
2023/03/23 01:25:09;;;;;;;0.80;0.77;;;10.70;76.70;;;;;;5029211;28;20026;-78
2023/03/23 01:27:35;;;;;;;0.80;0.70;;;10.70;76.80;;;;;;5042698;28;20078;-80
2023/03/23 01:30:01;;;;;;;0.65;0.55;;;10.70;76.80;;;;;;5037720;28;20097;-79
2023/03/23 01:32:27;;;;;;;1.08;0.70;;;10.60;76.90;;;;;;5023076;28;20029;-79
2023/03/23 01:34:52;;;;;;;0.50;0.50;;;10.60;77.00;;;;;;5031324;28;20030;-79
2023/03/23 01:37:19;;;;;;;0.52;0.52;;;10.60;77.20;;;;;;5045290;28;20169;-78
2023/03/23 01:39:45;;;;;;;0.50;0.50;;;10.60;77.20;;;;;;5023311;28;20025;-79
2023/03/23 01:42:11;;;;;;;0.75;0.57;;;10.60;77.30;;;;;;5036705;28;20017;-78
2023/03/23 01:44:40;;;;;;;0.52;0.52;;;10.60;77.40;;;;;;5041642;28;20022;-78
2023/03/23 01:47:05;;;;;;;0.40;0.40;;;10.60;77.40;;;;;;5033129;28;20052;-79
2023/03/23 01:49:36;;;;;;;0.40;0.40;;;10.60;77.60;;;;;;5029940;28;20070;-79
2023/03/23 01:52:07;;;;;;;0.40;0.40;;;10.60;77.70;;;;;;5011485;28;20033;-80
2023/03/23 01:54:37;;;;;;;0.55;0.45;;;10.70;77.80;;;;;;5016427;28;20025;-79
2023/03/23 01:57:10;;;;;;;0.47;0.47;;;10.60;77.80;;;;;;5042897;28;20452;-79
2023/03/23 01:59:37;;;;;;;0.50;0.50;;;10.60;77.80;;;;;;5012416;28;20098;-78
2023/03/23 02:02:04;;;;;;;0.40;0.38;;;10.60;77.90;;;;;;5035324;28;20040;-78
2023/03/23 02:04:31;;;;;;;0.60;0.60;;;10.60;78.00;;;;;;5049066;28;20085;-77
2023/03/23 02:06:57;;;;;;;0.60;0.40;;;10.60;78.00;;;;;;5048109;28;20093;-78
2023/03/23 02:09:26;;;;;;;0.30;0.30;;;10.60;78.10;;;;;;5032286;28;20513;-80
2023/03/23 02:11:53;;;;;;;0.30;0.30;;;10.60;78.20;;;;;;5053070;28;20057;-80
2023/03/23 02:14:20;;;;;;;0.50;0.45;;;10.60;78.30;;;;;;5068947;28;20061;-78
2023/03/23 02:17:06;;;;;;;0.52;0.50;;;10.60;78.40;;;;;;5050284;28;20045;-80
2023/03/23 02:19:56;;;;;;;0.52;0.40;;;10.50;78.40;;;;;;5025739;28;20048;-79
2023/03/23 02:22:34;;;;;;;1.05;0.45;;;10.50;78.60;;;;;;5052419;28;20025;-81
2023/03/23 02:25:41;;;;;;;0.32;0.32;;;10.50;78.70;;;;;;5041824;28;20064;-79
2023/03/23 02:28:29;;;;;;;0.40;0.40;;;10.50;78.90;;;;;;5046347;28;20506;-79
2023/03/23 02:31:19;;;;;;;0.45;0.45;;;10.50;79.00;;;;;;5027158;28;20037;-79
2023/03/23 02:34:07;;;;;;;0.30;0.30;;;10.50;79.10;;;;;;5014739;28;20045;-79
2023/03/23 02:36:43;;;;;;;0.30;0.30;;;10.50;79.20;;;;;;5025510;28;20049;-79
2023/03/23 02:40:08;;;;;;;0.40;0.40;;;10.50;79.20;;;;;;5031869;28;20021;-79
2023/03/23 02:42:39;;;;;;;0.40;0.40;;;10.50;79.30;;;;;;4961570;29;20134;-79
2023/03/23 02:45:08;;;;;;;1.33;0.68;;;10.50;79.20;;;;;;5006583;28;20538;-79
2023/03/23 02:47:37;;;;;;;0.30;0.30;;;10.50;79.20;;;;;;5031559;28;20018;-80
2023/03/23 02:50:04;;;;;;;0.35;0.35;;;10.50;79.20;;;;;;5018648;28;20018;-79
2023/03/23 02:52:32;;;;;;;0.60;0.60;;;10.50;79.30;;;;;;5027182;28;20049;-79
2023/03/23 02:55:01;;;;;;;0.47;0.43;;;10.50;79.30;;;;;;5030090;28;20048;-77
2023/03/23 02:57:28;;;;;;;0.40;0.40;;;10.50;79.30;;;;;;5045447;28;20123;-78
2023/03/23 02:59:54;;;;;;;0.55;0.50;;;10.50;79.20;;;;;;5028521;28;20022;-78
2023/03/23 03:02:32;;;;;;;0.30;0.30;;;10.50;79.30;;;;;;5031048;28;20022;-79
2023/03/23 03:05:12;;;;;;;0.52;0.45;;;10.40;79.20;;;;;;5037652;28;20031;-78
2023/03/23 03:08:23;;;;;;;1.75;0.50;;;10.40;79.20;;;;;;5006407;28;20041;-78
2023/03/23 03:10:57;;;;;;;0.30;0.30;;;10.40;79.40;;;;;;5039474;28;20064;-79
2023/03/23 03:13:38;;;;;;;0.30;0.30;;;10.30;79.60;;;;;;5031490;28;20390;-79
2023/03/23 03:16:24;;;;;;;0.47;0.30;;;10.30;79.80;;;;;;5019072;28;20041;-78
2023/03/23 03:18:53;;;;;;;0.30;0.30;;;10.30;79.90;;;;;;5035235;28;20029;-78
2023/03/23 03:21:25;;;;;;;1.20;0.70;;;10.30;80.00;;;;;;5032971;28;20033;-79
2023/03/23 03:23:54;;;;;;;0.80;0.45;;;10.20;80.10;;;;;;5016257;28;20022;-78
2023/03/23 03:26:21;;;;;;;0.30;0.30;;;10.20;80.20;;;;;;5011685;28;20055;-78
2023/03/23 03:28:48;;;;;;;0.70;0.40;;;10.20;80.20;;;;;;5010173;28;20090;-78
2023/03/23 03:31:18;;;;;;;0.50;0.50;;;10.20;80.30;;;;;;5035799;28;20037;-78
2023/03/23 03:33:45;;;;;;;0.43;0.40;;;10.20;80.40;;;;;;5016726;28;20479;-79
2023/03/23 03:36:17;;;;;;;0.38;0.30;;;10.20;80.50;;;;;;5038676;28;20108;-80
2023/03/23 03:38:48;;;;;;;0.45;0.40;;;10.20;80.50;;;;;;5022962;28;20030;-79
2023/03/23 03:41:14;;;;;;;0.23;0.23;;;10.20;80.60;;;;;;5005220;28;20356;-79
2023/03/23 03:43:40;;;;;;;0.25;0.25;;;10.20;80.60;;;;;;5052351;28;20024;-79
2023/03/23 03:46:05;;;;;;;0.32;0.32;;;10.20;80.60;;;;;;5020755;28;20029;-78
2023/03/23 03:48:31;;;;;;;1.00;0.30;;;10.30;80.50;;;;;;5020474;28;20017;-79
2023/03/23 03:50:57;;;;;;;0.35;0.35;;;10.20;80.50;;;;;;5032027;28;20063;-79
2023/03/23 03:53:32;;;;;;;0.80;0.50;;;10.20;80.60;;;;;;5041313;28;20022;-79
2023/03/23 03:55:59;;;;;;;0.35;0.35;;;10.20;80.60;;;;;;5038441;28;20028;-78
2023/03/23 03:58:31;;;;;;;0.80;0.50;;;10.20;80.70;;;;;;5025432;28;20089;-79
2023/03/23 04:01:00;;;;;;;0.50;0.50;;;10.20;80.80;;;;;;5016768;28;20057;-79
2023/03/23 04:03:27;;;;;;;0.45;0.45;;;10.20;80.80;;;;;;5043843;28;20025;-80
2023/03/23 04:05:55;;;;;;;0.35;0.35;;;10.20;80.70;;;;;;5034029;28;20029;-78
2023/03/23 04:08:22;;;;;;;0.50;0.50;;;10.30;80.80;;;;;;5032919;28;20117;-79
2023/03/23 04:10:48;;;;;;;0.60;0.50;;;10.30;80.70;;;;;;5039610;28;20029;-80
2023/03/23 04:13:14;;;;;;;0.38;0.38;;;10.30;80.60;;;;;;5045082;28;20037;-78
2023/03/23 04:15:40;;;;;;;0.40;0.40;;;10.30;81.20;;;;;;5039863;28;20034;-79
2023/03/23 04:18:06;;;;;;;1.08;0.60;;;10.30;80.60;;;;;;5042803;28;20028;-79
2023/03/23 04:20:34;;;;;;;0.50;0.40;;;10.30;80.60;;;;;;5020944;28;20053;-79
2023/03/23 04:23:01;;;;;;;0.50;0.50;;;10.20;80.70;;;;;;5034103;28;20017;-79
2023/03/23 04:25:27;;;;;;;0.20;0.20;;;10.30;80.90;;;;;;5040238;28;20148;-79
2023/03/23 04:27:53;;;;;;;0.70;0.50;;;10.20;80.90;;;;;;5032709;28;20112;-79
2023/03/23 04:30:27;;;;;;;0.47;0.43;;;10.20;80.90;;;;;;5027119;28;20014;-79
2023/03/23 04:32:54;;;;;;;0.40;0.40;;;10.30;81.00;;;;;;5030877;28;20100;-78
2023/03/23 04:35:24;;;;;;;0.38;0.32;;;10.30;80.90;;;;;;5040114;28;20031;-78
2023/03/23 04:37:50;;;;;;;0.68;0.52;;;10.30;80.90;;;;;;5024411;28;20105;-79
2023/03/23 04:40:17;;;;;;;0.50;0.50;;;10.30;80.90;;;;;;5015362;28;20117;-78
2023/03/23 04:42:47;;;;;;;0.65;0.47;;;10.30;81.00;;;;;;5051198;28;20037;-78
2023/03/23 04:45:14;;;;;;;1.20;0.75;;;10.20;80.90;;;;;;5059390;28;20037;-80
2023/03/23 04:47:41;;;;;;;0.90;0.60;;;10.20;81.00;;;;;;5034750;28;20034;-80
2023/03/23 04:50:12;;;;;;;0.60;0.57;;;10.20;81.00;;;;;;5043175;28;20030;-80
2023/03/23 04:52:40;;;;;;;1.15;0.73;;;10.20;81.00;;;;;;5034577;28;20036;-80
2023/03/23 04:55:09;;;;;;;0.70;0.57;;;10.20;81.10;;;;;;5044029;28;20073;-79
2023/03/23 04:57:35;;;;;;;0.70;0.68;;;10.20;81.20;;;;;;5039214;28;20098;-79
2023/03/23 05:00:08;;;;;;;0.68;0.60;;;10.20;81.30;;;;;;5021629;28;20022;-79
2023/03/23 05:02:36;;;;;;;0.60;0.50;;;10.20;81.40;;;;;;5004961;28;20038;-78
2023/03/23 05:05:02;;;;;;;0.40;0.40;;;10.30;81.40;;;;;;5025433;28;20072;-78
2023/03/23 05:07:27;;;;;;;0.70;0.70;;;10.30;81.30;;;;;;5022936;28;20454;-79
2023/03/23 05:09:53;;;;;;;0.60;0.60;;;10.20;81.80;;;;;;5021070;28;20038;-79
2023/03/23 05:12:19;;;;;;;0.52;0.52;;;10.30;81.30;;;;;;5038539;28;20033;-79
2023/03/23 05:14:44;;;;;;;0.95;0.50;;;10.20;81.30;;;;;;5039660;28;20095;-79
2023/03/23 05:17:10;;;;;;;0.70;0.70;;;10.20;81.40;;;;;;5032718;28;20053;-79
2023/03/23 05:19:36;;;;;;;1.00;0.75;;;10.20;81.50;;;;;;5024131;28;20025;-80
2023/03/23 05:22:02;;;;;;;0.60;0.60;;;10.20;81.60;;;;;;5009739;28;20034;-80
2023/03/23 05:24:31;;;;;;;0.40;0.40;;;10.20;81.70;;;;;;5025569;28;20093;-78
2023/03/23 05:26:57;;;;;;;1.05;0.80;;;10.20;81.80;;;;;;5027802;28;20476;-79
2023/03/23 05:29:23;;;;;;;1.45;0.52;;;10.30;81.60;;;;;;5007032;28;20037;-78
2023/03/23 05:31:49;;;;;;;0.80;0.73;;;10.30;81.60;;;;;;5037647;28;20036;-79
2023/03/23 05:34:15;;;;;;;0.47;0.45;;;10.30;81.60;;;;;;5041264;28;20033;-79
2023/03/23 05:36:43;;;;;;;0.70;0.70;;;10.30;81.60;;;;;;5042095;28;20022;-78
2023/03/23 05:39:10;;;;;;;0.45;0.45;;;10.40;81.60;;;;;;5024681;28;20025;-79
2023/03/23 05:41:37;;;;;;;0.63;0.60;;;10.40;81.60;;;;;;5045231;28;20108;-77
2023/03/23 05:44:03;;;;;;;0.95;0.60;;;10.40;81.60;;;;;;5046196;28;20073;-79
2023/03/23 05:46:29;;;;;;;0.50;0.50;;;10.40;81.60;;;;;;5016824;28;20064;-78
2023/03/23 05:48:55;;;;;;;0.40;0.30;;;10.40;81.60;;;;;;5040056;28;20041;-78
2023/03/23 05:51:20;;;;;;;0.50;0.50;;;10.40;81.70;;;;;;5024392;28;20021;-78
2023/03/23 05:53:47;;;;;;;0.85;0.52;;;10.40;81.60;;;;;;5046921;28;20051;-80
2023/03/23 05:56:12;;;;;;;1.45;0.70;;;10.40;81.60;;;;;;5048182;28;20052;-79
2023/03/23 05:58:38;;;;;;;0.50;0.50;;;10.40;81.60;;;;;;5029957;28;20025;-78
2023/03/23 06:01:08;;;;;;;1.23;0.82;;;10.50;81.60;;;;;;5023870;28;20037;-78
2023/03/23 06:03:35;;;;;;;0.43;0.40;;;10.50;81.70;;;;;;5039614;28;20033;-77
2023/03/23 06:06:02;;;;;;;0.80;0.47;;;10.50;81.70;;;;;;5027019;28;20025;-79
2023/03/23 06:08:28;;;;;;;0.50;0.50;;;10.60;81.80;;;;;;5025514;28;20060;-79
2023/03/23 06:10:55;;;;;;;0.55;0.52;;;10.60;81.60;;;;;;5040668;28;20029;-77
2023/03/23 06:13:21;;;;;;;0.57;0.38;;;10.70;81.50;;;;;;5064865;28;20021;-78
2023/03/23 06:15:47;;;;;;;0.90;0.70;;;10.80;81.30;;;;;;5045913;28;20018;-78
2023/03/23 06:18:13;;;;;;;0.55;0.55;;;10.90;80.90;;;;;;5036602;28;20059;-79
2023/03/23 06:20:40;;;;;;;0.60;0.50;;;10.90;80.60;;;;;;5042310;28;20018;-78
2023/03/23 06:23:08;;;;;;;0.98;0.80;;;11.00;80.40;;;;;;5030324;28;20398;-79
2023/03/23 06:25:34;;;;;;;0.93;0.40;;;11.10;80.20;;;;;;5021873;28;20087;-78
2023/03/23 06:28:00;;;;;;;0.40;0.40;;;11.20;80.00;;;;;;5019910;28;20021;-79
2023/03/23 06:30:26;;;;;;;0.57;0.50;;;11.20;79.70;;;;;;5032144;28;20029;-79
2023/03/23 06:32:53;;;;;;;0.63;0.63;;;11.20;79.50;;;;;;5034983;28;20101;-79
2023/03/23 06:35:19;;;;;;;0.70;0.70;;;11.30;79.30;;;;;;5026340;28;20026;-79
2023/03/23 06:37:45;;;;;;;1.00;0.70;;;11.30;79.00;;;;;;5021708;28;20041;-79
2023/03/23 06:40:11;;;;;;;0.60;0.60;;;11.30;79.00;;;;;;5020270;28;20038;-79
2023/03/23 06:42:37;;;;;;;0.77;0.77;;;11.40;78.90;;;;;;5030068;28;20061;-78
2023/03/23 06:45:04;;;;;;;0.80;0.75;;;11.40;78.60;;;;;;5033382;28;20018;-79
2023/03/23 06:47:30;;;;;;;0.88;0.57;;;11.40;78.50;;;;;;5039590;28;20013;-80
2023/03/23 06:49:57;;;;;;;0.68;0.50;;;11.50;78.50;;;;;;5030663;28;20045;-79
2023/03/23 06:52:24;;;;;;;0.73;0.50;;;11.50;78.30;;;;;;5023985;28;20087;-79
2023/03/23 06:54:50;;;;;;;0.15;0.15;;;11.60;78.30;;;;;;5038033;28;20082;-81
2023/03/23 06:57:16;;;;;;;0.50;0.43;;;11.70;78.10;;;;;;5036410;28;20117;-79
2023/03/23 06:59:42;;;;;;;0.75;0.40;;;11.70;77.90;;;;;;5034700;28;20423;-79
2023/03/23 07:02:13;;;;;;;0.85;0.85;;;11.80;77.70;;;;;;5036994;28;20025;-79
2023/03/23 07:04:40;;;;;;;1.63;0.50;;;11.90;77.40;;;;;;5029174;28;20084;-77
2023/03/23 07:07:10;;;;;;;0.45;0.45;;;12.00;77.20;;;;;;5016556;28;20211;-79
2023/03/23 07:09:36;;;;;;;1.17;0.70;;;12.20;76.90;;;;;;5019765;28;20033;-80
2023/03/23 07:12:02;;;;;;;0.95;0.60;;;12.40;76.30;;;;;;5019920;28;20041;-79
2023/03/23 07:14:28;;;;;;;1.63;0.90;;;12.60;75.50;;;;;;5021790;28;20025;-79
2023/03/23 07:16:54;;;;;;;0.57;0.57;;;12.80;74.80;;;;;;5029975;28;20040;-80
2023/03/23 07:19:20;;;;;;;1.40;0.52;;;13.00;74.20;;;;;;5044821;28;20037;-77
2023/03/23 07:21:46;;;;;;;0.63;0.60;;;13.30;73.40;;;;;;5039418;28;20109;-80
2023/03/23 07:24:13;;;;;;;0.50;0.50;;;13.40;72.40;;;;;;5013397;28;20127;-79
2023/03/23 07:26:41;;;;;;;0.50;0.50;;;13.60;71.80;;;;;;5028852;28;20018;-78
2023/03/23 07:29:07;;;;;;;0.40;0.40;;;13.90;71.20;;;;;;5040891;28;20032;-79
2023/03/23 07:31:33;;;;;;;0.75;0.45;;;14.10;70.50;;;;;;5026980;28;20259;-79
2023/03/23 07:33:59;;;;;;;0.50;0.50;;;14.30;70.00;;;;;;5039833;28;20022;-79
2023/03/23 07:36:25;;;;;;;0.38;0.38;;;14.50;69.10;;;;;;5039306;28;20025;-78
2023/03/23 07:38:51;;;;;;;0.47;0.30;;;14.70;68.10;;;;;;5042179;28;20482;-78
2023/03/23 07:41:17;;;;;;;0.68;0.45;;;15.00;67.70;;;;;;5036131;28;20047;-78
2023/03/23 07:43:43;;;;;;;0.38;0.38;;;15.20;66.70;;;;;;5039263;28;20021;-79
2023/03/23 07:46:09;;;;;;;0.93;0.85;;;15.50;65.90;;;;;;5030377;28;20029;-79
2023/03/23 07:48:35;;;;;;;0.70;0.70;;;15.80;65.20;;;;;;5049847;28;20048;-76
2023/03/23 07:51:01;;;;;;;0.70;0.70;;;16.00;63.90;;;;;;5042316;28;20375;-79
2023/03/23 07:53:27;;;;;;;2.13;0.85;;;16.20;63.40;;;;;;5047004;28;20032;-80
2023/03/23 07:55:53;;;;;;;3.00;0.90;;;16.40;63.10;;;;;;5045269;28;20045;-81
2023/03/23 07:58:20;;;;;;;0.65;0.65;;;16.50;62.30;;;;;;5033878;28;20029;-78
2023/03/23 08:00:48;;;;;;;1.00;0.90;;;16.70;61.50;;;;;;5035982;28;20025;-81
2023/03/23 08:03:15;;;;;;;2.22;0.77;;;16.70;61.10;;;;;;5041196;28;20022;-79
2023/03/23 08:05:42;;;;;;;0.73;0.73;;;16.60;61.00;;;;;;5042752;28;20034;-78
2023/03/23 08:08:09;;;;;;;0.70;0.70;;;16.50;61.20;;;;;;5026430;28;20026;-78
2023/03/23 08:10:35;;;;;;;0.60;0.60;;;16.30;61.30;;;;;;5042809;28;20026;-80
2023/03/23 08:13:01;;;;;;;0.70;0.55;;;16.10;61.80;;;;;;5035148;28;20098;-80
2023/03/23 08:15:28;;;;;;;0.55;0.50;;;15.90;62.30;;;;;;5034765;28;20029;-81
2023/03/23 08:17:54;;;;;;;0.55;0.52;;;15.80;62.50;;;;;;5041576;28;20037;-81
2023/03/23 08:20:20;;;;;;;0.60;0.60;;;15.70;62.70;;;;;;5034643;28;20025;-80
2023/03/23 08:22:55;;;;;;;0.90;0.60;;;15.80;63.00;;;;;;5034475;28;20030;-80
2023/03/23 08:25:21;;;;;;;0.90;0.70;;;15.90;63.00;;;;;;5045817;28;20037;-79
2023/03/23 08:27:47;;;;;;;0.77;0.60;;;16.00;62.80;;;;;;5037733;28;20037;-79
2023/03/23 08:30:16;;;;;;;0.40;0.40;;;16.00;62.60;;;;;;5028086;28;20171;-79
2023/03/23 08:32:44;;;;;;;0.40;0.40;;;16.00;62.50;;;;;;5016634;28;20021;-79
2023/03/23 08:35:11;;;;;;;0.75;0.60;;;16.00;62.50;;;;;;5017747;28;20053;-78
2023/03/23 08:37:43;;;;;;;0.30;0.30;;;16.00;62.50;;;;;;5033031;23;20050;-77
2023/03/23 08:40:14;;;;;;;0.43;0.40;;;16.00;62.40;;;;;;5020663;28;20026;-77
2023/03/23 08:42:42;;;;;;;0.57;0.57;;;16.00;62.20;;;;;;5001322;28;20119;-78
2023/03/23 08:45:11;;;;;;;0.60;0.47;;;16.10;61.90;;;;;;5019427;28;20053;-77
2023/03/23 08:47:37;;;;;;;0.32;0.32;;;16.30;61.80;;;;;;5031666;28;20037;-78
2023/03/23 08:50:05;;;;;;;0.55;0.30;;;16.40;61.30;;;;;;5016693;28;20442;-77
2023/03/23 08:52:32;;;;;;;0.57;0.50;;;16.50;60.90;;;;;;5006388;28;20035;-77
2023/03/23 08:54:58;;;;;;;0.20;0.20;;;16.70;60.60;;;;;;5001037;28;20026;-79
2023/03/23 08:57:25;;;;;;;0.60;0.60;;;16.90;61.20;;;;;;5021611;28;20032;-78
2023/03/23 08:59:57;;;;;;;0.50;0.50;;;16.90;60.30;;;;;;5020094;28;20478;-77
2023/03/23 09:02:23;;;;;;;0.20;0.20;;;17.20;60.50;;;;;;5017609;28;20026;-77
2023/03/23 09:04:50;;;;;;;1.35;0.93;;;17.30;59.80;;;;;;5017737;28;20125;-79
2023/03/23 09:07:15;;;;;;;1.25;1.02;;;17.50;59.30;;;;;;5000322;28;20023;-77
2023/03/23 09:09:42;;;;;;;3.75;1.25;;;17.60;58.60;;;;;;5004335;28;20030;-77
2023/03/23 09:12:09;;;;;;;2.50;1.48;;;17.80;57.80;;;;;;5017844;28;20018;-76
2023/03/23 09:14:38;;;;;;;1.40;1.30;;;18.00;56.90;;;;;;4997450;28;20046;-77
2023/03/23 09:17:05;;;;;;;1.70;1.52;;;18.20;55.80;;;;;;5014496;28;20034;-77
2023/03/23 09:19:33;;;;;;;1.75;1.65;;;18.20;55.80;;;;;;5013364;28;20030;-77
2023/03/23 09:22:00;;;;;;;1.40;1.30;;;18.20;54.80;;;;;;5021381;28;20030;-77
2023/03/23 09:24:26;;;;;;;1.50;1.40;;;18.30;54.30;;;;;;5023765;28;20044;-77
2023/03/23 09:26:54;;;;;;;1.45;1.35;;;18.30;54.30;;;;;;5003201;28;20407;-77
2023/03/23 09:29:20;;;;;;;1.30;1.05;;;18.40;54.10;;;;;;5018875;28;20108;-77
2023/03/23 09:31:46;;;;;;;0.98;0.98;;;18.60;53.90;;;;;;5018622;28;20025;-77
2023/03/23 09:34:15;;;;;;;1.83;1.00;;;18.80;53.60;;;;;;5005524;28;20525;-77
2023/03/23 09:36:44;;;;;;;2.50;1.10;;;18.80;53.10;;;;;;4998410;28;20023;-78
2023/03/23 09:39:11;;;;;;;1.25;1.02;;;18.90;52.60;;;;;;5009651;28;20060;-77
2023/03/23 09:41:55;;;;;;;1.20;1.10;;;18.80;52.30;;;;;;5002659;28;20086;-77
2023/03/23 09:44:40;;;;;;;0.60;0.60;;;18.90;52.60;;;;;;5013775;28;20165;-77
2023/03/23 09:47:22;;;;;;;1.10;0.85;;;19.00;52.20;;;;;;4979909;28;20030;-78
2023/03/23 09:49:47;;;;;;;0.95;0.90;;;19.10;52.00;;;;;;4983491;28;20029;-76
2023/03/23 09:52:14;;;;;;;1.13;0.93;;;19.30;51.70;;;;;;5002146;28;20134;-77
2023/03/23 09:54:43;;;;;;;1.38;0.93;;;19.30;51.70;;;;;;5014716;28;20084;-77
2023/03/23 09:57:26;;;;;;;1.42;0.90;;;19.40;51.70;;;;;;5019973;28;20094;-78
2023/03/23 09:59:51;;;;;;;;;;;19.70;51.20;;;;;;5013358;28;20109;-76
2023/03/23 10:02:41;;;;;;;1.45;1.10;;;20.20;50.60;;;;;;4998729;28;19937;-77
2023/03/23 10:05:29;;;;;;;1.35;1.05;;;20.50;49.60;;;;;;5007847;28;20027;-78
2023/03/23 10:07:55;;;;;;;0.73;0.73;;;20.70;49.10;;;;;;5003206;28;20056;-78
2023/03/23 10:10:26;;;;;;;1.40;1.30;;;20.80;49.00;;;;;;5011058;28;20025;-77
2023/03/23 10:13:01;;;;;;;1.98;1.27;;;20.80;48.40;;;;;;5007920;28;20080;-78
2023/03/23 10:15:31;;;;;;;1.90;1.30;;;20.80;48.50;;;;;;4998370;28;20026;-78
2023/03/23 10:18:02;;;;;;;1.42;1.33;;;20.90;48.50;;;;;;5009517;28;20057;-77
2023/03/23 10:20:39;;;;;;;2.10;1.88;;;20.90;48.40;;;;;;5013140;28;20031;-76
2023/03/23 10:23:30;;;;;;;2.00;1.65;;;20.70;48.20;;;;;;5003515;28;20052;-77
2023/03/23 10:26:10;;;;;;;4.45;2.30;;;20.50;48.40;;;;;;4998389;28;20491;-76
2023/03/23 10:28:45;;;;;;;2.65;1.95;;;20.10;48.50;;;;;;4996867;28;20037;-77
2023/03/23 10:31:24;;;;;;;1.35;1.25;;;19.70;49.80;;;;;;5007610;28;20072;-77
2023/03/23 10:33:54;;;;;;;2.92;1.98;;;19.40;50.50;;;;;;4996044;28;20040;-77
2023/03/23 10:36:25;;;;;;;1.58;1.48;;;19.30;50.80;;;;;;5003431;28;20361;-77
2023/03/23 10:39:17;;;;;;;2.03;1.75;;;19.10;51.10;;;;;;5018521;28;20045;-77
2023/03/23 10:41:43;;;;;;;1.85;1.45;;;19.00;51.20;;;;;;5004796;28;20041;-77
2023/03/23 10:44:17;;;;;;;1.20;1.10;;;18.90;51.40;;;;;;5002576;28;20037;-77
2023/03/23 10:47:04;;;;;;;1.20;1.05;;;18.90;51.70;;;;;;5010862;28;20311;-77
2023/03/23 10:49:33;;;;;;;1.85;1.20;;;18.90;51.80;;;;;;5001637;28;20542;-78
2023/03/23 10:52:32;;;;;;;2.30;1.55;;;19.00;51.80;;;;;;5002066;28;20026;-78
2023/03/23 10:55:05;;;;;;;1.85;1.60;;;19.20;51.30;;;;;;4998133;28;20045;-77
2023/03/23 10:57:33;;;;;;;3.00;1.45;;;19.30;50.60;;;;;;4999508;28;20038;-79
2023/03/23 11:00:08;;;;;;;3.80;1.60;;;19.30;50.00;;;;;;4999164;28;20030;-77
2023/03/23 11:02:44;;;;;;;1.65;1.35;;;19.30;49.80;;;;;;5017872;28;20029;-78
2023/03/23 11:05:23;;;;;;;1.85;1.08;;;19.30;49.60;;;;;;5001536;28;20390;-77
2023/03/23 11:07:55;;;;;;;0.98;0.93;;;19.40;49.70;;;;;;4999235;28;20037;-78
2023/03/23 11:10:48;;;;;;;2.40;1.42;;;19.40;49.70;;;;;;5004492;28;20030;-78
2023/03/23 11:13:15;;;;;;;1.55;1.30;;;19.50;49.10;;;;;;5030177;28;20034;-78
2023/03/23 11:15:45;;;;;;;3.05;1.35;;;19.60;49.10;;;;;;5012727;28;20487;-78
2023/03/23 11:18:26;;;;;;;2.17;1.63;;;19.60;48.50;;;;;;5004913;28;20057;-78
2023/03/23 11:20:58;;;;;;;3.55;2.05;;;19.70;48.30;;;;;;5011845;28;20026;-77
2023/03/23 11:23:54;;;;;;;3.33;2.10;;;19.60;48.00;;;;;;4999738;28;20080;-77
2023/03/23 11:26:30;;;;;;;2.90;1.88;;;19.60;48.50;;;;;;4980029;28;20118;-77
2023/03/23 11:28:55;;;;;;;2.92;2.17;;;19.60;48.30;;;;;;5008156;28;20041;-78
2023/03/23 11:31:24;;;;;;;2.13;1.83;;;19.60;48.30;;;;;;5008200;28;20089;-76
2023/03/23 11:34:00;;;;;;;2.90;1.25;;;19.70;48.50;;;;;;5006889;28;20049;-77
2023/03/23 11:36:36;;;;;;;1.30;1.20;;;20.00;48.50;;;;;;5005233;28;20045;-77
2023/03/23 11:39:04;;;;;;;2.63;1.52;;;20.20;48.20;;;;;;5011392;28;20088;-78
2023/03/23 11:41:33;;;;;;;1.60;1.20;;;20.40;47.90;;;;;;5013455;28;20402;-78
2023/03/23 11:44:09;;;;;;;1.58;1.48;;;20.50;47.50;;;;;;5015437;28;20018;-77
2023/03/23 11:46:47;;;;;;;1.77;1.55;;;20.70;47.20;;;;;;5014608;28;20046;-78
2023/03/23 11:49:25;;;;;;;3.17;1.30;;;20.70;47.10;;;;;;4996242;28;20081;-77
2023/03/23 11:51:59;;;;;;;0.95;0.95;;;20.90;47.00;;;;;;5011034;28;20026;-78
2023/03/23 11:54:37;;;;;;;2.10;1.90;;;20.90;46.70;;;;;;5017363;28;20021;-78
2023/03/23 11:57:11;;;;;;;1.65;1.55;;;20.90;46.40;;;;;;5000893;28;20108;-77
2023/03/23 11:59:41;;;;;;;3.85;2.30;;;20.70;46.70;;;;;;5013183;28;20025;-78
2023/03/23 12:02:12;;;;;;;2.25;1.75;;;20.70;47.10;;;;;;5015522;28;20033;-77
2023/03/23 12:05:10;;;;;;;2.05;1.80;;;20.80;47.20;;;;;;5012585;28;20033;-78
2023/03/23 12:08:14;;;;;;;3.25;2.10;;;20.80;47.20;;;;;;4967042;28;20120;-77
2023/03/23 12:11:12;;;;;;;2.03;1.77;;;20.90;47.00;;;;;;5011972;28;20033;-77
2023/03/23 12:13:52;;;;;;;3.05;2.28;;;20.80;46.90;;;;;;4992622;28;20037;-77
2023/03/23 12:16:50;;;;;;;2.42;1.92;;;20.60;46.70;;;;;;5004252;28;20033;-78
2023/03/23 12:19:31;;;;;;;5.45;1.83;;;20.60;47.00;;;;;;5022966;28;20117;-77
2023/03/23 12:22:16;;;;;;;3.65;2.30;;;20.50;47.10;;;;;;5023958;28;20033;-77
2023/03/23 12:25:08;;;;;;;3.47;1.60;;;20.60;46.80;;;;;;4992811;28;20029;-76
2023/03/23 12:27:53;;;;;;;2.00;1.23;;;20.70;46.90;;;;;;5008782;28;20033;-77
2023/03/23 12:30:34;;;;;;;1.77;1.42;;;20.90;46.60;;;;;;5017099;28;20022;-77
2023/03/23 12:33:08;;;;;;;2.83;1.63;;;20.80;46.50;;;;;;5007547;28;20021;-78
2023/03/23 12:35:56;;;;;;;3.50;1.80;;;20.80;46.70;;;;;;5011827;28;20046;-77
2023/03/23 12:38:31;;;;;;;2.40;1.80;;;20.90;46.70;;;;;;5001416;28;20440;-78
2023/03/23 12:41:17;;;;;;;3.22;2.03;;;20.90;46.80;;;;;;5011047;28;20022;-76
2023/03/23 12:43:50;;;;;;;4.88;2.65;;;20.80;46.50;;;;;;5007306;28;20062;-77
2023/03/23 12:46:53;;;;;;;2.08;1.70;;;20.80;46.00;;;;;;5005195;28;20030;-77
2023/03/23 12:49:47;;;;;;;1.60;1.50;;;20.70;46.30;;;;;;5012633;28;20025;-77
2023/03/23 12:52:19;;;;;;;3.28;1.83;;;20.70;46.50;;;;;;5006708;28;20046;-76
2023/03/23 12:55:05;;;;;;;2.75;2.10;;;20.80;46.10;;;;;;4996355;28;20049;-78
2023/03/23 12:57:48;;;;;;;2.17;1.92;;;20.90;45.80;;;;;;4977639;28;20118;-77
2023/03/23 13:00:25;;;;;;;3.00;1.83;;;20.80;45.80;;;;;;4980577;28;20023;-77
2023/03/23 13:03:11;;;;;;;2.88;2.08;;;20.80;45.50;;;;;;5008593;28;20034;-78
2023/03/23 13:05:44;;;;;;;4.05;1.70;;;20.80;45.30;;;;;;4996670;28;20145;-77
2023/03/23 13:08:20;;;;;;;2.80;1.50;;;20.70;44.80;;;;;;5009619;28;20022;-77